Sunbury, Illinois
Current Conditions -  °F | °C
As of 10:35 AM on Saturday 22 Nov 2014 (Local Time) from KPNT Reporting Station
Overcast Overcast  
Wind Chill: 41°   Ceiling: 1900
Heat Index: 47°   Visibility: 10mi
Dew Point: 43°   Wind: 13mph
Humidity: 85%   Direction: 200°SSW
Pressure: 30.01"   Gusts: 18mph
Location:  41.0632°N, 88.6426°W
Report Text: KPNT 221635Z AUTO 20011G16KT 10SM OVC019 08/06 A3001 RMK AO2 T00830059
Loading
Personal Weather Stations






























Interactive Weather Map New forecast layout! Learn more

10-Day Weather Forecast

Advertisements
Track Severe Weather on mobile